Welby, Colorado
Current Conditions -  °F | °C
As of 3:14 AM on Tuesday 27 Jan 2015 (Local Time) from KBJC Reporting Station
Clear Clear  
Wind Chill: 48°   Ceiling: Unl
Heat Index: 48°   Visibility: 10mi
Dew Point: 19°   Wind: 3mph
Humidity: 32%   Direction: 190°S
Pressure: 30.18"   Gusts: NA
Location:  39.8532°N, 104.959°W
Report Text: KBJC 271014Z AUTO 19003KT 10SM CLR 09/M07 A3018 RMK AO2
Loading
Personal Weather Stations






























Interactive Weather Map New forecast layout! Learn more

10-Day Weather Forecast

Advertisements
Track Severe Weather on mobile